Time;durP1;ratioP1;P1;durP2;ratioP2;P2;SDS_P1;SDS_P2;PMS_P1;PMS_P2;Temp;Humidity;BMP_temperature;BMP_pressure;BME280_temperature;BME280_humidity;BME280_pressure;Samples;Min_cycle;Max_cycle;Signal;HPM_P1;HPM_P2
2022/11/01 00:02:38;;;;;;;41.65;33.50;;;14.20;99.90;;;;;;5037502;28;20032;-59
2022/11/01 00:05:24;;;;;;;45.20;34.53;;;14.20;99.90;;;;;;5030257;28;20151;-59
2022/11/01 00:08:10;;;;;;;44.70;37.15;;;14.20;99.90;;;;;;5031700;28;20029;-59
2022/11/01 00:11:07;;;;;;;41.47;33.55;;;14.20;99.90;;;;;;5032546;28;20037;-61
2022/11/01 00:13:53;;;;;;;44.28;33.33;;;14.20;99.90;;;;;;5032741;28;20045;-61
2022/11/01 00:16:39;;;;;;;41.30;31.33;;;14.20;99.90;;;;;;5032648;28;20033;-59
2022/11/01 00:19:25;;;;;;;47.95;34.78;;;14.30;99.90;;;;;;5018153;28;20034;-60
2022/11/01 00:22:11;;;;;;;41.42;33.28;;;14.30;99.90;;;;;;5032429;28;20107;-61
2022/11/01 00:24:57;;;;;;;39.22;31.92;;;14.20;99.90;;;;;;5032317;28;20030;-61
2022/11/01 00:27:43;;;;;;;38.47;29.95;;;14.20;99.90;;;;;;5032074;28;20025;-55
2022/11/01 00:30:28;;;;;;;36.33;28.80;;;14.10;99.90;;;;;;5016820;28;20044;-60
2022/11/01 00:33:14;;;;;;;36.10;30.73;;;14.10;99.90;;;;;;5032719;28;20064;-61
2022/11/01 00:36:01;;;;;;;34.25;28.85;;;14.10;99.90;;;;;;5032338;28;20029;-57
2022/11/01 00:38:51;;;;;;;33.75;29.38;;;14.10;99.90;;;;;;5032368;28;20482;-60
2022/11/01 00:41:36;;;;;;;34.05;27.65;;;14.10;99.90;;;;;;4997948;28;20491;-60
2022/11/01 00:44:22;;;;;;;26.30;23.45;;;14.10;99.90;;;;;;5012080;28;20030;-59
2022/11/01 00:47:08;;;;;;;24.52;21.75;;;14.00;99.90;;;;;;5012099;28;20037;-60
2022/11/01 00:49:54;;;;;;;29.23;23.25;;;13.90;99.90;;;;;;5016659;28;20084;-61
2022/11/01 00:52:40;;;;;;;27.10;24.27;;;13.80;99.90;;;;;;5032552;28;20057;-61
2022/11/01 00:55:26;;;;;;;24.40;22.00;;;13.50;99.90;;;;;;5018108;28;20033;-61
2022/11/01 00:58:12;;;;;;;25.33;21.13;;;13.20;99.90;;;;;;5031023;28;20422;-60
2022/11/01 01:00:58;;;;;;;23.00;20.58;;;13.10;99.90;;;;;;5031370;28;20025;-60
2022/11/01 01:03:44;;;;;;;24.75;22.15;;;13.20;99.90;;;;;;5031929;28;20022;-61
2022/11/01 01:06:30;;;;;;;24.98;22.38;;;13.10;99.90;;;;;;5021574;28;20030;-58
2022/11/01 01:09:16;;;;;;;24.25;21.85;;;13.10;99.90;;;;;;5031486;28;20029;-60
2022/11/01 01:12:02;;;;;;;25.58;22.88;;;13.10;99.90;;;;;;5030357;28;20117;-61
2022/11/01 01:14:48;;;;;;;28.10;25.13;;;13.10;99.90;;;;;;5020520;28;20448;-61
2022/11/01 01:17:35;;;;;;;27.75;25.02;;;13.00;99.90;;;;;;5030977;28;20029;-62
2022/11/01 01:20:21;;;;;;;30.33;24.55;;;12.80;99.90;;;;;;5021353;28;20046;-60
2022/11/01 01:23:07;;;;;;;34.40;24.95;;;12.80;99.90;;;;;;5032110;28;20053;-58
2022/11/01 01:25:53;;;;;;;27.77;24.73;;;12.70;99.90;;;;;;5024151;28;20033;-58
2022/11/01 01:28:39;;;;;;;29.63;26.40;;;12.60;99.90;;;;;;5044359;28;20025;-61
2022/11/01 01:31:25;;;;;;;31.60;25.20;;;12.60;99.90;;;;;;5049554;28;20021;-59
2022/11/01 01:34:11;;;;;;;29.02;26.00;;;12.60;99.90;;;;;;5030483;28;20037;-61
2022/11/01 01:36:57;;;;;;;31.02;25.50;;;12.60;99.90;;;;;;5030916;28;20114;-62
2022/11/01 01:39:43;;;;;;;37.85;25.83;;;12.50;99.90;;;;;;5030853;28;20030;-60
2022/11/01 01:42:31;;;;;;;29.90;26.67;;;12.50;99.90;;;;;;5030104;28;20121;-59
2022/11/01 01:45:23;;;;;;;30.67;27.40;;;12.50;99.90;;;;;;5029996;28;20053;-59
2022/11/01 01:48:17;;;;;;;34.70;27.55;;;12.50;99.90;;;;;;5032880;28;20099;-57
2022/11/01 01:51:07;;;;;;;30.73;27.40;;;12.60;99.90;;;;;;5018508;28;20037;-59
2022/11/01 01:53:56;;;;;;;36.53;27.77;;;12.60;99.90;;;;;;5020380;28;20049;-58
2022/11/01 01:56:43;;;;;;;46.30;26.52;;;12.60;99.90;;;;;;5029862;28;20041;-58
2022/11/01 01:59:30;;;;;;;38.90;30.50;;;12.50;99.90;;;;;;5011765;28;20442;-60
2022/11/01 02:02:17;;;;;;;73.97;30.27;;;12.50;99.90;;;;;;5010417;28;20498;-59
2022/11/01 02:05:14;;;;;;;77.75;32.15;;;12.40;99.90;;;;;;5025146;28;20585;-56
2022/11/01 02:08:00;;;;;;;80.43;29.38;;;12.30;99.90;;;;;;5030801;28;20030;-58
2022/11/01 02:10:46;;;;;;;147.50;34.33;;;12.20;99.90;;;;;;5030054;28;20029;-60
2022/11/01 02:13:33;;;;;;;151.27;40.47;;;11.80;99.90;;;;;;5030386;28;20026;-60
2022/11/01 02:16:57;;;;;;;124.95;37.92;;;11.50;99.90;;;;;;5030353;28;20025;-60
2022/11/01 02:19:59;;;;;;;59.83;36.33;;;11.60;99.90;;;;;;4940434;28;20556;-59
2022/11/01 02:23:03;;;;;;;121.20;38.25;;;11.70;99.90;;;;;;4934579;28;20497;-60
2022/11/01 02:26:04;;;;;;;76.95;37.88;;;11.70;99.90;;;;;;5029565;28;20035;-61
2022/11/01 02:29:47;;;;;;;65.80;36.58;;;11.70;99.90;;;;;;5022962;28;20040;-59
2022/11/01 02:33:03;;;;;;;41.08;36.65;;;11.80;99.90;;;;;;4922835;29;20039;-59
2022/11/01 02:36:06;;;;;;;50.85;38.08;;;11.90;99.90;;;;;;4920975;29;20047;-58
2022/11/01 02:39:28;;;;;;;46.80;36.60;;;12.00;99.90;;;;;;5030823;28;20033;-55
2022/11/01 02:42:20;;;;;;;52.10;35.58;;;12.20;99.90;;;;;;5022708;28;20579;-59
2022/11/01 02:45:26;;;;;;;62.28;38.65;;;12.40;99.90;;;;;;5030741;28;20034;-59
2022/11/01 02:48:12;;;;;;;44.53;37.70;;;12.50;99.90;;;;;;5030989;28;20030;-59
2022/11/01 02:50:59;;;;;;;43.08;36.08;;;12.50;99.90;;;;;;5016511;28;20120;-56
2022/11/01 02:53:45;;;;;;;41.88;37.35;;;12.50;99.90;;;;;;5030554;28;20033;-59
2022/11/01 02:56:31;;;;;;;52.85;36.17;;;12.50;99.90;;;;;;5030007;28;20029;-60
2022/11/01 02:59:23;;;;;;;39.95;35.65;;;12.50;99.90;;;;;;5016358;28;20029;-60
2022/11/01 03:02:38;;;;;;;38.25;34.20;;;12.50;99.90;;;;;;5030120;28;20112;-60
2022/11/01 03:05:43;;;;;;;37.63;33.57;;;12.60;99.90;;;;;;5029818;28;20040;-59
2022/11/01 03:08:31;;;;;;;36.40;32.15;;;12.70;99.90;;;;;;5029008;28;20030;-60
2022/11/01 03:11:25;;;;;;;35.05;31.25;;;12.70;99.90;;;;;;5015360;28;20037;-59
2022/11/01 03:14:24;;;;;;;36.63;32.38;;;12.70;99.90;;;;;;5030354;28;20030;-59
2022/11/01 03:17:32;;;;;;;35.22;31.33;;;12.70;99.90;;;;;;5029995;28;20037;-58
2022/11/01 03:20:46;;;;;;;35.88;32.13;;;12.80;99.90;;;;;;5029872;28;20037;-58
2022/11/01 03:23:38;;;;;;;38.45;31.88;;;12.70;99.90;;;;;;5034481;28;20028;-58
2022/11/01 03:26:27;;;;;;;34.97;31.35;;;12.70;99.90;;;;;;5034242;28;20033;-59
2022/11/01 03:29:15;;;;;;;38.08;34.13;;;12.60;99.90;;;;;;5034091;28;20383;-60
2022/11/01 03:32:02;;;;;;;37.20;33.20;;;12.60;99.90;;;;;;5033325;28;20084;-61
2022/11/01 03:34:49;;;;;;;34.05;30.58;;;12.60;99.90;;;;;;5032926;28;20068;-58
2022/11/01 03:37:39;;;;;;;33.15;29.85;;;12.60;99.90;;;;;;5018965;28;20382;-60
2022/11/01 03:40:28;;;;;;;33.47;30.08;;;12.60;99.90;;;;;;5014967;28;20052;-60
2022/11/01 03:43:17;;;;;;;31.73;28.50;;;12.60;99.90;;;;;;5001085;28;20042;-59
2022/11/01 03:46:03;;;;;;;32.28;28.95;;;12.60;99.90;;;;;;5033885;28;20029;-60
2022/11/01 03:48:49;;;;;;;30.77;27.75;;;12.70;99.90;;;;;;5033340;28;20525;-59
2022/11/01 03:51:35;;;;;;;31.05;28.10;;;12.80;99.90;;;;;;5017479;28;20121;-59
2022/11/01 03:54:21;;;;;;;32.47;29.25;;;12.90;99.90;;;;;;5033203;28;20124;-59
2022/11/01 03:57:07;;;;;;;36.72;33.08;;;12.90;99.90;;;;;;5032661;28;20021;-61
2022/11/01 03:59:53;;;;;;;32.22;29.02;;;12.80;99.90;;;;;;5033827;28;20025;-61
2022/11/01 04:02:39;;;;;;;32.20;28.92;;;12.80;99.90;;;;;;5033083;28;20034;-60
2022/11/01 04:05:27;;;;;;;31.45;28.25;;;12.70;99.90;;;;;;5032762;28;20033;-59
2022/11/01 04:08:13;;;;;;;34.38;30.95;;;12.60;99.90;;;;;;5014361;28;20041;-59
2022/11/01 04:10:59;;;;;;;34.95;31.15;;;12.50;99.90;;;;;;5018527;28;20025;-61
2022/11/01 04:13:46;;;;;;;36.47;32.58;;;12.30;99.90;;;;;;5033540;28;20549;-60
2022/11/01 04:22:41;;;;;;;33.25;29.77;;;12.30;99.90;;;;;;5034410;28;20510;-59
2022/11/01 04:25:27;;;;;;;35.05;31.33;;;12.20;99.90;;;;;;5022932;28;20505;-59
2022/11/01 04:28:14;;;;;;;33.83;30.50;;;12.30;99.90;;;;;;5053190;28;20034;-60
2022/11/01 04:31:01;;;;;;;36.50;32.63;;;12.20;99.90;;;;;;5017618;28;20041;-61
2022/11/01 04:33:46;;;;;;;35.65;31.90;;;12.20;99.90;;;;;;5020695;28;20517;-60
2022/11/01 04:36:32;;;;;;;37.90;32.05;;;12.20;99.90;;;;;;5033507;28;20708;-59
2022/11/01 04:39:18;;;;;;;35.22;31.63;;;12.30;99.90;;;;;;5032841;28;20545;-58
2022/11/01 04:42:04;;;;;;;33.92;30.38;;;12.40;99.90;;;;;;5032614;28;20440;-60
2022/11/01 04:44:50;;;;;;;31.17;28.10;;;12.40;99.90;;;;;;5005234;28;20061;-59
2022/11/01 04:47:36;;;;;;;31.65;28.48;;;12.50;99.90;;;;;;5032598;28;20494;-63
2022/11/01 04:50:22;;;;;;;33.03;29.48;;;12.60;99.90;;;;;;5032540;28;20037;-61
2022/11/01 04:53:09;;;;;;;37.05;33.25;;;12.60;99.90;;;;;;5038476;28;20082;-60
2022/11/01 04:55:55;;;;;;;37.75;33.78;;;12.70;99.90;;;;;;5043777;28;20036;-59
2022/11/01 04:58:41;;;;;;;35.78;32.25;;;12.60;99.90;;;;;;5032230;28;20030;-61
2022/11/01 05:01:27;;;;;;;34.47;30.98;;;12.50;99.90;;;;;;5035281;28;20021;-61
2022/11/01 05:04:13;;;;;;;35.35;31.85;;;12.50;99.90;;;;;;5044302;28;20078;-61
2022/11/01 05:06:59;;;;;;;32.67;29.33;;;12.50;99.90;;;;;;5040243;28;20041;-61
2022/11/01 05:09:45;;;;;;;34.38;30.90;;;12.40;99.90;;;;;;5017114;28;20030;-63
2022/11/01 05:12:31;;;;;;;34.72;31.23;;;12.30;99.90;;;;;;5032001;28;20057;-59
2022/11/01 05:15:17;;;;;;;34.50;31.02;;;12.20;99.90;;;;;;5017988;28;20041;-62
2022/11/01 05:18:04;;;;;;;36.45;32.75;;;12.20;99.90;;;;;;5031429;28;20040;-59
2022/11/01 05:20:50;;;;;;;35.15;31.50;;;12.20;99.90;;;;;;5031116;28;20053;-59
2022/11/01 05:23:35;;;;;;;35.25;31.55;;;12.20;99.90;;;;;;5032244;28;20041;-62
2022/11/01 05:26:21;;;;;;;36.13;32.42;;;12.30;99.90;;;;;;5031974;28;20072;-58
2022/11/01 05:29:07;;;;;;;36.15;32.50;;;12.30;99.90;;;;;;5031085;28;20040;-58
2022/11/01 05:31:53;;;;;;;33.50;30.02;;;12.30;99.90;;;;;;5031542;28;20028;-62
2022/11/01 05:34:39;;;;;;;33.63;30.20;;;12.30;99.90;;;;;;5031626;28;20059;-60
2022/11/01 05:37:25;;;;;;;32.10;28.83;;;12.40;99.90;;;;;;5030916;28;20022;-61
2022/11/01 05:40:11;;;;;;;34.10;30.48;;;12.40;99.90;;;;;;5031593;28;20033;-60
2022/11/01 05:42:57;;;;;;;34.30;30.70;;;12.40;99.90;;;;;;5031618;28;20049;-59
2022/11/01 05:45:43;;;;;;;34.00;30.63;;;12.50;99.90;;;;;;5030156;28;20026;-60
2022/11/01 05:48:29;;;;;;;35.10;31.58;;;12.60;99.90;;;;;;5030477;28;20167;-60
2022/11/01 05:51:15;;;;;;;33.10;29.80;;;12.60;99.90;;;;;;5031355;28;20033;-59
2022/11/01 05:54:01;;;;;;;33.38;29.88;;;12.60;99.90;;;;;;5016686;28;20041;-62
2022/11/01 05:56:47;;;;;;;34.08;30.48;;;12.50;99.90;;;;;;5031130;28;20037;-59
2022/11/01 05:59:35;;;;;;;33.53;30.02;;;12.50;99.90;;;;;;5015967;28;20100;-63
2022/11/01 06:02:22;;;;;;;35.03;31.60;;;12.40;99.90;;;;;;5023124;28;20040;-60
2022/11/01 06:05:08;;;;;;;36.60;32.83;;;12.40;99.90;;;;;;5048001;28;20033;-59
2022/11/01 06:07:54;;;;;;;35.90;32.17;;;12.40;99.90;;;;;;5010379;28;20122;-59
2022/11/01 06:10:40;;;;;;;34.90;31.38;;;12.40;99.90;;;;;;5019293;28;20017;-59
2022/11/01 06:13:26;;;;;;;33.35;29.88;;;12.50;99.90;;;;;;5030478;28;20036;-59
2022/11/01 06:16:12;;;;;;;33.10;29.75;;;12.60;99.90;;;;;;5030687;28;20102;-61
2022/11/01 06:18:58;;;;;;;33.13;29.58;;;12.60;99.90;;;;;;5041562;28;20495;-61
2022/11/01 06:21:44;;;;;;;34.78;30.83;;;12.60;99.90;;;;;;5035196;28;20029;-62
2022/11/01 06:24:30;;;;;;;34.53;31.00;;;12.60;99.90;;;;;;5019010;28;20109;-63
2022/11/01 06:27:16;;;;;;;34.47;30.85;;;12.60;99.90;;;;;;5041657;28;20029;-61
2022/11/01 06:30:03;;;;;;;33.15;29.67;;;12.60;99.90;;;;;;5030240;28;20038;-57
2022/11/01 06:32:49;;;;;;;34.15;30.80;;;12.50;99.90;;;;;;5029868;28;20041;-63
2022/11/01 06:35:35;;;;;;;32.33;29.02;;;12.50;99.90;;;;;;5026275;28;20041;-60
2022/11/01 06:38:21;;;;;;;33.60;30.10;;;12.40;99.90;;;;;;5038258;28;20033;-56
2022/11/01 06:41:09;;;;;;;34.95;31.27;;;12.30;99.90;;;;;;5024732;28;20092;-57
2022/11/01 06:43:55;;;;;;;31.65;28.40;;;12.40;99.90;;;;;;4999102;28;20021;-56
2022/11/01 06:46:41;;;;;;;31.67;28.50;;;12.40;99.90;;;;;;5035321;28;20033;-54
2022/11/01 06:49:28;;;;;;;34.17;30.80;;;12.40;99.90;;;;;;5035768;28;20113;-59
2022/11/01 06:52:14;;;;;;;34.38;30.77;;;12.40;99.90;;;;;;5021795;28;20034;-59
2022/11/01 06:55:05;;;;;;;36.25;31.20;;;12.30;99.90;;;;;;5044017;28;20112;-58
2022/11/01 06:57:56;;;;;;;41.42;31.13;;;12.30;99.90;;;;;;5038634;28;20101;-56
2022/11/01 07:00:42;;;;;;;45.70;31.15;;;12.40;99.90;;;;;;5025037;28;20041;-55
2022/11/01 07:03:27;;;;;;;37.30;32.10;;;12.30;99.90;;;;;;5026328;28;20080;-58
2022/11/01 07:06:13;;;;;;;34.92;31.05;;;12.40;99.90;;;;;;5020510;28;20453;-51
2022/11/01 07:09:00;;;;;;;35.60;31.80;;;12.40;99.90;;;;;;5011518;28;20399;-58
2022/11/01 07:11:46;;;;;;;36.83;31.35;;;12.40;99.90;;;;;;5033103;28;20033;-55
2022/11/01 07:14:32;;;;;;;34.97;30.08;;;12.50;99.90;;;;;;5015292;28;20111;-57
2022/11/01 07:17:18;;;;;;;31.80;28.27;;;12.60;99.90;;;;;;5024295;28;20029;-57
2022/11/01 07:20:04;;;;;;;32.38;28.90;;;12.70;99.90;;;;;;5030216;28;20030;-57
2022/11/01 07:23:00;;;;;;;33.22;30.00;;;12.80;99.90;;;;;;5028202;28;20033;-55
2022/11/01 07:25:52;;;;;;;32.53;29.08;;;12.90;99.90;;;;;;5029093;28;20034;-53
2022/11/01 07:28:38;;;;;;;35.13;28.45;;;13.00;99.90;;;;;;5029274;28;20441;-56
2022/11/01 07:31:24;;;;;;;30.70;27.38;;;13.00;99.90;;;;;;5028967;28;20135;-55
2022/11/01 07:34:10;;;;;;;30.13;27.00;;;13.10;99.90;;;;;;5029983;28;20105;-55
2022/11/01 07:36:56;;;;;;;32.28;28.85;;;13.20;99.90;;;;;;5029727;28;20053;-58
2022/11/01 07:39:42;;;;;;;33.03;28.48;;;13.30;99.90;;;;;;5030437;28;20064;-59
2022/11/01 07:42:28;;;;;;;33.05;29.27;;;13.30;99.90;;;;;;5029536;28;20089;-55
2022/11/01 07:45:14;;;;;;;33.00;28.05;;;13.30;99.90;;;;;;5031456;28;20633;-56
2022/11/01 07:48:02;;;;;;;31.42;28.05;;;13.30;99.90;;;;;;5047660;28;20064;-54
2022/11/01 07:50:47;;;;;;;31.00;25.92;;;13.30;99.90;;;;;;5044384;28;20667;-52
2022/11/01 07:53:34;;;;;;;29.27;26.00;;;13.30;99.90;;;;;;5020740;28;20052;-58
2022/11/01 07:56:20;;;;;;;31.88;26.88;;;13.50;99.90;;;;;;5011455;28;20680;-57
2022/11/01 07:59:08;;;;;;;37.03;25.83;;;13.60;99.90;;;;;;5030443;28;20048;-59
2022/11/01 08:01:54;;;;;;;32.28;25.75;;;13.90;99.90;;;;;;5029135;28;20022;-56
2022/11/01 08:04:39;;;;;;;29.48;24.05;;;14.10;99.90;;;;;;5029233;28;20072;-55
2022/11/01 08:07:25;;;;;;;30.58;23.95;;;14.20;99.90;;;;;;5014220;28;20032;-51
2022/11/01 08:10:11;;;;;;;29.40;23.50;;;14.30;99.90;;;;;;5033004;28;20136;-58
2022/11/01 08:13:07;;;;;;;29.80;22.15;;;14.40;99.90;;;;;;5032111;28;20029;-54
2022/11/01 08:15:54;;;;;;;37.20;27.60;;;14.50;99.90;;;;;;5033686;28;20034;-55
2022/11/01 08:18:40;;;;;;;40.03;30.20;;;14.50;99.90;;;;;;5032970;28;20029;-57
2022/11/01 08:21:26;;;;;;;35.92;29.30;;;14.60;99.90;;;;;;5013771;28;20085;-55
2022/11/01 08:24:12;;;;;;;33.83;23.25;;;14.70;99.90;;;;;;5031022;28;20043;-55
2022/11/01 08:26:58;;;;;;;29.55;22.30;;;14.80;99.90;;;;;;5032514;28;20029;-53
2022/11/01 08:29:44;;;;;;;23.77;20.23;;;14.90;99.90;;;;;;5029608;28;20030;-54
2022/11/01 08:32:29;;;;;;;25.73;20.08;;;14.90;99.90;;;;;;5032168;28;20490;-59
2022/11/01 08:35:15;;;;;;;25.30;21.35;;;14.90;99.90;;;;;;5033072;28;20040;-60
2022/11/01 08:38:02;;;;;;;25.05;20.63;;;14.80;99.90;;;;;;5032773;28;20033;-53
2022/11/01 08:40:48;;;;;;;25.58;20.40;;;14.80;99.90;;;;;;5032577;28;20021;-55
2022/11/01 08:43:34;;;;;;;28.15;19.73;;;14.80;99.90;;;;;;5017164;28;20105;-52
2022/11/01 08:46:20;;;;;;;24.08;19.52;;;14.80;99.90;;;;;;5032918;28;20018;-58
2022/11/01 08:49:06;;;;;;;21.95;18.67;;;14.90;99.90;;;;;;5018660;28;20117;-57
2022/11/01 08:51:52;;;;;;;26.35;18.45;;;15.00;99.90;;;;;;5032375;28;20082;-62
2022/11/01 08:54:38;;;;;;;25.05;18.30;;;15.00;99.90;;;;;;5033120;28;20453;-58
2022/11/01 08:57:24;;;;;;;24.92;17.98;;;15.10;99.90;;;;;;5032069;28;20405;-60
2022/11/01 09:00:12;;;;;;;23.60;18.55;;;15.20;99.90;;;;;;5018252;28;20452;-59
2022/11/01 09:02:58;;;;;;;25.25;19.30;;;15.30;99.90;;;;;;5031786;28;20032;-52
2022/11/01 09:05:44;;;;;;;23.52;18.35;;;15.40;99.90;;;;;;5005720;28;20041;-54
2022/11/01 09:08:30;;;;;;;24.45;17.70;;;15.50;99.90;;;;;;5019161;28;20506;-55
2022/11/01 09:11:16;;;;;;;21.95;18.42;;;15.50;99.90;;;;;;5032916;28;20030;-54
2022/11/01 09:14:02;;;;;;;23.00;19.30;;;15.60;99.90;;;;;;5018656;28;20116;-55
2022/11/01 09:16:48;;;;;;;22.65;17.42;;;15.70;99.90;;;;;;5005307;28;20026;-56
2022/11/01 09:19:34;;;;;;;22.85;16.80;;;15.80;99.90;;;;;;5031988;28;20079;-54
2022/11/01 09:22:20;;;;;;;26.65;17.20;;;15.90;99.90;;;;;;5016929;28;20059;-59
2022/11/01 09:25:07;;;;;;;21.35;16.00;;;16.00;99.90;;;;;;5031695;28;20056;-55
2022/11/01 09:27:56;;;;;;;21.05;14.57;;;16.00;99.90;;;;;;5032139;28;20032;-50
2022/11/01 09:30:42;;;;;;;21.42;14.55;;;16.10;99.90;;;;;;5031292;28;20532;-59
2022/11/01 09:33:28;;;;;;;16.48;12.80;;;16.10;99.90;;;;;;5018726;28;20120;-53
2022/11/01 09:36:14;;;;;;;18.88;12.82;;;16.20;99.90;;;;;;5031596;28;20029;-53
2022/11/01 09:39:00;;;;;;;17.65;12.20;;;16.10;99.90;;;;;;5017062;28;20563;-56
2022/11/01 09:41:57;;;;;;;19.23;12.82;;;16.10;99.90;;;;;;5031132;28;20208;-59
2022/11/01 09:44:46;;;;;;;17.13;12.57;;;16.10;99.90;;;;;;5031178;28;20048;-53
2022/11/01 09:47:34;;;;;;;20.35;12.73;;;16.10;99.90;;;;;;5030867;28;20117;-56
2022/11/01 09:50:32;;;;;;;19.88;12.70;;;16.10;99.90;;;;;;5031701;28;20649;-58
2022/11/01 09:53:22;;;;;;;17.92;13.20;;;16.20;99.90;;;;;;5031267;28;20586;-58
2022/11/01 09:56:18;;;;;;;18.52;14.68;;;16.20;99.90;;;;;;5031289;28;20037;-58
2022/11/01 09:59:13;;;;;;;20.67;14.52;;;16.20;99.90;;;;;;5031072;28;20037;-59
2022/11/01 10:02:16;;;;;;;23.52;17.63;;;16.20;99.90;;;;;;5031093;28;20505;-59
2022/11/01 10:05:10;;;;;;;22.70;15.75;;;16.10;99.90;;;;;;5031240;28;20047;-57
2022/11/01 10:08:10;;;;;;;24.30;16.25;;;16.10;99.90;;;;;;5030706;28;20033;-58
2022/11/01 10:11:28;;;;;;;24.80;16.83;;;16.10;99.90;;;;;;5030734;28;20040;-57
2022/11/01 10:14:53;;;;;;;22.10;16.23;;;16.30;99.90;;;;;;4955609;28;20499;-59
2022/11/01 10:17:45;;;;;;;20.05;15.45;;;16.20;99.90;;;;;;5010157;28;20029;-52
2022/11/01 10:20:35;;;;;;;22.05;16.38;;;16.10;99.90;;;;;;5022933;28;20083;-55
2022/11/01 10:23:50;;;;;;;19.02;15.48;;;16.20;99.90;;;;;;5016011;28;20078;-55
2022/11/01 10:26:43;;;;;;;20.23;14.00;;;16.30;99.90;;;;;;5017011;28;20091;-56
2022/11/01 10:29:41;;;;;;;18.50;14.48;;;16.30;99.90;;;;;;5030430;28;20108;-59
2022/11/01 10:32:39;;;;;;;21.58;14.50;;;16.30;99.90;;;;;;5029287;28;20528;-55
2022/11/01 10:35:37;;;;;;;18.30;13.68;;;16.40;99.90;;;;;;5029109;28;20057;-54
2022/11/01 10:38:33;;;;;;;19.65;14.35;;;16.40;99.90;;;;;;5030061;28;20034;-53
2022/11/01 10:41:24;;;;;;;19.45;14.35;;;16.40;99.90;;;;;;5015547;28;20021;-54
2022/11/01 10:44:33;;;;;;;20.15;13.93;;;16.50;99.90;;;;;;5030328;28;20496;-57
2022/11/01 10:47:20;;;;;;;16.23;12.80;;;16.40;99.90;;;;;;5030748;28;20108;-54
2022/11/01 10:50:20;;;;;;;21.20;13.48;;;16.40;99.90;;;;;;5029550;28;20030;-61
2022/11/01 10:53:11;;;;;;;16.17;11.73;;;16.40;99.90;;;;;;5029173;28;20021;-54
2022/11/01 10:56:02;;;;;;;15.85;11.20;;;16.50;99.90;;;;;;5028742;28;20567;-54
2022/11/01 10:59:33;;;;;;;15.55;11.50;;;16.60;99.90;;;;;;5030203;28;20037;-58
2022/11/01 11:02:34;;;;;;;14.60;9.98;;;16.60;99.90;;;;;;4930713;28;20036;-53
2022/11/01 11:05:23;;;;;;;15.30;10.15;;;16.60;99.90;;;;;;5005858;28;20025;-56
2022/11/01 11:08:16;;;;;;;12.82;9.77;;;16.70;99.90;;;;;;5029095;28;20100;-51
2022/11/01 11:11:06;;;;;;;17.13;9.80;;;16.80;99.90;;;;;;5027989;28;20026;-51
2022/11/01 11:13:53;;;;;;;11.93;9.27;;;16.80;99.90;;;;;;5029627;28;20112;-57
2022/11/01 11:16:55;;;;;;;11.02;8.80;;;16.90;99.90;;;;;;5029599;28;20113;-58
2022/11/01 11:19:45;;;;;;;10.30;7.93;;;16.90;99.90;;;;;;5028591;28;20029;-53
2022/11/01 11:22:36;;;;;;;8.85;7.13;;;16.90;99.90;;;;;;5015634;28;20017;-54
2022/11/01 11:25:31;;;;;;;10.25;6.97;;;17.00;99.90;;;;;;5015059;28;20036;-54
2022/11/01 11:28:29;;;;;;;7.10;6.40;;;17.00;99.90;;;;;;5029731;28;20029;-54
2022/11/01 11:31:31;;;;;;;7.55;6.50;;;17.10;99.90;;;;;;5019778;28;20033;-56
2022/11/01 11:34:33;;;;;;;9.13;6.75;;;17.10;99.90;;;;;;5029298;28;20037;-56
2022/11/01 11:37:22;;;;;;;8.18;6.57;;;17.20;99.90;;;;;;5029119;28;20513;-61
2022/11/01 11:40:28;;;;;;;10.30;6.47;;;17.20;99.90;;;;;;5028677;28;20113;-57
2022/11/01 11:43:29;;;;;;;7.03;5.80;;;17.20;99.90;;;;;;5016469;28;20413;-56
2022/11/01 11:46:20;;;;;;;8.30;5.53;;;17.30;99.90;;;;;;5033453;28;20051;-55
2022/11/01 11:49:25;;;;;;;8.15;5.55;;;17.30;99.90;;;;;;5032411;28;20075;-53
2022/11/01 11:52:18;;;;;;;8.38;6.57;;;17.30;99.90;;;;;;5018927;28;20052;-53
2022/11/01 11:55:22;;;;;;;11.30;5.88;;;17.40;99.90;;;;;;5033367;28;20029;-52
2022/11/01 11:58:37;;;;;;;10.00;5.82;;;17.40;99.90;;;;;;5032875;28;20026;-56
2022/11/01 12:01:27;;;;;;;7.95;5.18;;;17.40;99.90;;;;;;5031256;28;20055;-53
2022/11/01 12:04:17;;;;;;;6.88;5.30;;;17.50;99.90;;;;;;5032670;28;20044;-50
2022/11/01 12:07:06;;;;;;;8.07;5.15;;;17.50;99.90;;;;;;5017474;28;20071;-59
2022/11/01 12:09:54;;;;;;;7.95;5.15;;;17.60;99.90;;;;;;5018470;28;20103;-57
2022/11/01 12:12:44;;;;;;;7.97;4.70;;;17.70;99.90;;;;;;5032694;28;20072;-60
2022/11/01 12:15:32;;;;;;;8.93;4.40;;;17.70;99.90;;;;;;5032539;28;20453;-54
2022/11/01 12:18:18;;;;;;;8.90;5.13;;;17.70;99.90;;;;;;5032095;28;20021;-57
2022/11/01 12:21:34;;;;;;;7.82;4.72;;;17.90;99.90;;;;;;5032048;28;20033;-58
2022/11/01 12:24:25;;;;;;;8.52;4.60;;;18.10;99.90;;;;;;5017790;28;20484;-61
2022/11/01 12:27:20;;;;;;;8.73;5.60;;;18.00;99.90;;;;;;5018667;28;20036;-55
2022/11/01 12:30:15;;;;;;;7.68;4.70;;;18.10;99.90;;;;;;5032243;28;20116;-57
2022/11/01 12:33:26;;;;;;;7.30;4.40;;;18.20;99.90;;;;;;5012885;28;20099;-55
2022/11/01 12:36:14;;;;;;;8.80;4.88;;;18.30;99.90;;;;;;5026967;28;20087;-53
2022/11/01 12:39:22;;;;;;;7.75;4.45;;;18.40;99.90;;;;;;5032098;28;20543;-57
2022/11/01 12:42:13;;;;;;;10.07;5.32;;;18.40;99.90;;;;;;5012948;28;20088;-55
2022/11/01 12:45:14;;;;;;;6.53;4.75;;;18.50;99.90;;;;;;5017458;28;20028;-57
2022/11/01 12:48:07;;;;;;;10.98;5.18;;;18.50;99.90;;;;;;5032831;28;20506;-51
2022/11/01 12:51:23;;;;;;;8.70;4.45;;;18.40;99.90;;;;;;5031353;28;20452;-55
2022/11/01 12:54:26;;;;;;;8.15;4.40;;;18.20;99.90;;;;;;5033192;28;20501;-57
2022/11/01 12:57:15;;;;;;;9.57;4.55;;;18.20;99.90;;;;;;5032292;28;20413;-58
2022/11/01 13:00:03;;;;;;;7.57;4.32;;;18.00;99.90;;;;;;5032833;28;20033;-53
2022/11/01 13:03:34;;;;;;;7.32;4.25;;;18.00;99.90;;;;;;5031428;28;20048;-50
2022/11/01 13:06:59;;;;;;;9.05;4.13;;;18.10;99.90;;;;;;5033157;28;20026;-53
2022/11/01 13:10:16;;;;;;;9.57;4.30;;;18.10;99.90;;;;;;5031209;28;20048;-57
2022/11/01 13:13:28;;;;;;;8.63;3.90;;;18.10;99.80;;;;;;5031204;28;20224;-58
2022/11/01 13:16:28;;;;;;;7.90;4.13;;;18.20;99.90;;;;;;5049316;28;20021;-55
2022/11/01 13:19:29;;;;;;;6.60;4.28;;;18.30;99.90;;;;;;5051447;28;20033;-54
2022/11/01 13:22:25;;;;;;;7.53;3.95;;;18.50;99.90;;;;;;5050914;28;20435;-58
2022/11/01 13:25:18;;;;;;;5.30;3.97;;;18.40;99.90;;;;;;5051493;28;20024;-59
2022/11/01 13:28:16;;;;;;;8.02;4.22;;;18.50;99.80;;;;;;5027833;28;20030;-59
2022/11/01 13:31:29;;;;;;;6.25;4.30;;;18.60;99.60;;;;;;5030578;28;20544;-55
2022/11/01 13:34:49;;;;;;;6.50;4.00;;;18.60;99.80;;;;;;5018504;28;20113;-59
2022/11/01 13:37:42;;;;;;;7.78;4.40;;;18.70;99.70;;;;;;4997398;28;20025;-57
2022/11/01 13:40:54;;;;;;;7.25;4.00;;;18.70;99.80;;;;;;5029113;28;20029;-59
2022/11/01 13:43:44;;;;;;;8.18;4.13;;;18.60;99.90;;;;;;5028806;28;20452;-54
2022/11/01 13:46:44;;;;;;;5.70;3.72;;;18.60;99.50;;;;;;5030301;28;20394;-59
2022/11/01 13:49:55;;;;;;;8.05;4.20;;;18.40;99.70;;;;;;5029673;28;20172;-55
2022/11/01 13:52:50;;;;;;;7.63;3.88;;;18.60;99.40;;;;;;5031262;28;20113;-57
2022/11/01 13:55:43;;;;;;;6.53;3.97;;;18.70;99.30;;;;;;4997209;28;20493;-54
2022/11/01 13:58:32;;;;;;;7.57;4.15;;;18.70;99.40;;;;;;5028843;28;20026;-61
2022/11/01 14:01:49;;;;;;;8.68;4.50;;;19.00;99.30;;;;;;5030385;28;20017;-57
2022/11/01 14:04:38;;;;;;;5.90;4.05;;;19.30;98.70;;;;;;5013707;28;20098;-58
2022/11/01 14:07:32;;;;;;;6.97;4.45;;;19.30;98.50;;;;;;5014772;28;20068;-54
2022/11/01 14:10:18;;;;;;;6.20;3.90;;;19.30;98.70;;;;;;5029840;28;20037;-59
2022/11/01 14:13:15;;;;;;;8.93;4.63;;;19.50;98.50;;;;;;5030343;28;20029;-55
2022/11/01 14:16:18;;;;;;;8.48;4.10;;;19.50;98.60;;;;;;5029905;28;20034;-52
2022/11/01 14:19:13;;;;;;;6.93;4.60;;;19.90;98.20;;;;;;5032200;28;20029;-57
2022/11/01 14:21:59;;;;;;;7.72;4.03;;;20.30;97.50;;;;;;5011027;28;20030;-54
2022/11/01 14:24:57;;;;;;;6.22;4.10;;;20.30;97.50;;;;;;5026938;28;20022;-52
2022/11/01 14:27:45;;;;;;;5.10;3.78;;;20.20;97.60;;;;;;5030135;28;20385;-57
2022/11/01 14:30:34;;;;;;;8.90;6.05;;;20.10;97.60;;;;;;5029058;28;20033;-57
2022/11/01 14:33:21;;;;;;;6.90;4.20;;;20.00;97.90;;;;;;5029154;28;20044;-57
2022/11/01 14:36:13;;;;;;;5.85;4.28;;;20.20;97.80;;;;;;5030747;28;20087;-56
2022/11/01 14:39:11;;;;;;;6.63;4.30;;;20.10;97.80;;;;;;5016198;28;20370;-54
2022/11/01 14:42:00;;;;;;;5.40;3.85;;;19.90;98.20;;;;;;5028913;28;20021;-58